Time;durP1;ratioP1;P1;durP2;ratioP2;P2;SDS_P1;SDS_P2;PMS_P1;PMS_P2;Temp;Humidity;BMP_temperature;BMP_pressure;BME280_temperature;BME280_humidity;BME280_pressure;Samples;Min_cycle;Max_cycle;Signal;HPM_P1;HPM_P2
2022/07/22 00:01:14;;;;;;;5.65;1.63;;;17.10;99.90;;;;;;4855847;29;36813;-84
2022/07/22 00:03:40;;;;;;;7.03;1.95;;;17.20;99.90;;;;;;4854713;29;36033;-83
2022/07/22 00:06:07;;;;;;;6.63;1.65;;;17.10;99.90;;;;;;4868045;29;38727;-84
2022/07/22 00:08:33;;;;;;;4.20;1.50;;;17.20;99.90;;;;;;4875010;29;38307;-84
2022/07/22 00:10:59;;;;;;;6.03;1.75;;;17.20;99.90;;;;;;4858432;29;38226;-83
2022/07/22 00:13:25;;;;;;;7.53;1.73;;;17.10;99.90;;;;;;4856559;29;35989;-84
2022/07/22 00:15:51;;;;;;;7.15;1.30;;;17.20;99.90;;;;;;4857686;29;37731;-84
2022/07/22 00:18:17;;;;;;;10.60;2.17;;;17.10;99.90;;;;;;4853557;29;38414;-86
2022/07/22 00:20:43;;;;;;;6.57;1.73;;;17.10;99.90;;;;;;4856759;29;38238;-84
2022/07/22 00:23:09;;;;;;;7.15;1.70;;;17.10;99.90;;;;;;4856181;29;36378;-84
2022/07/22 00:25:35;;;;;;;8.98;1.85;;;17.10;99.90;;;;;;4875648;29;38614;-83
2022/07/22 00:28:08;;;;;;;6.65;2.20;;;17.10;99.90;;;;;;4856792;29;37355;-82
2022/07/22 00:30:34;;;;;;;6.63;1.80;;;17.10;99.90;;;;;;4873842;29;48055;-83
2022/07/22 00:33:00;;;;;;;8.88;1.98;;;17.20;99.90;;;;;;4857286;29;37166;-84
2022/07/22 00:35:26;;;;;;;8.10;2.03;;;17.10;99.90;;;;;;4863681;29;38576;-84
2022/07/22 00:37:52;;;;;;;7.03;1.77;;;17.20;99.90;;;;;;4872860;29;37833;-83
2022/07/22 00:40:18;;;;;;;5.28;1.77;;;17.30;99.90;;;;;;4856561;29;36924;-84
2022/07/22 00:42:44;;;;;;;7.25;1.83;;;17.20;99.90;;;;;;4857560;29;36272;-84
2022/07/22 00:45:11;;;;;;;5.13;1.95;;;17.20;99.90;;;;;;4856559;29;38033;-84
2022/07/22 00:47:37;;;;;;;6.28;2.00;;;17.20;99.90;;;;;;4855729;29;38118;-83
2022/07/22 00:50:04;;;;;;;9.07;2.20;;;17.20;99.90;;;;;;4857719;29;37338;-83
2022/07/22 00:52:32;;;;;;;4.53;1.48;;;17.20;99.90;;;;;;4857037;29;46930;-83
2022/07/22 00:54:59;;;;;;;6.95;1.92;;;17.20;99.90;;;;;;4838217;29;37493;-83
2022/07/22 00:57:26;;;;;;;7.68;1.98;;;17.20;99.90;;;;;;4857059;29;38069;-83
2022/07/22 00:59:52;;;;;;;6.75;1.60;;;17.20;99.90;;;;;;4853689;29;38252;-83
2022/07/22 01:02:19;;;;;;;8.68;2.00;;;17.30;99.90;;;;;;4854979;29;36575;-83
2022/07/22 01:04:45;;;;;;;10.35;2.00;;;17.30;99.90;;;;;;4856446;29;38059;-84
2022/07/22 01:07:11;;;;;;;8.25;2.05;;;17.20;99.90;;;;;;4857837;29;37580;-84
2022/07/22 01:09:37;;;;;;;7.55;2.08;;;17.20;99.90;;;;;;4857756;29;38187;-84
2022/07/22 01:12:03;;;;;;;5.20;1.70;;;17.20;99.90;;;;;;4857195;29;37428;-84
2022/07/22 01:14:30;;;;;;;4.45;2.03;;;17.10;99.90;;;;;;4855178;29;37570;-83
2022/07/22 01:16:56;;;;;;;7.32;1.60;;;17.10;99.90;;;;;;4873716;29;38956;-84
2022/07/22 01:19:22;;;;;;;5.32;1.70;;;17.20;99.90;;;;;;4857100;29;36900;-84
2022/07/22 01:21:48;;;;;;;4.00;1.45;;;17.10;99.90;;;;;;4857693;29;35800;-84
2022/07/22 01:24:14;;;;;;;3.75;1.65;;;17.10;99.90;;;;;;4852501;29;37842;-84
2022/07/22 01:26:40;;;;;;;5.80;1.60;;;17.20;99.90;;;;;;4857743;29;37429;-84
2022/07/22 01:29:07;;;;;;;10.07;2.30;;;17.10;99.90;;;;;;4847492;29;36775;-85
2022/07/22 01:31:33;;;;;;;5.38;1.77;;;17.10;99.90;;;;;;4856450;29;36493;-84
2022/07/22 01:33:59;;;;;;;6.45;1.60;;;17.10;99.90;;;;;;4870801;29;39308;-84
2022/07/22 01:36:26;;;;;;;4.30;1.70;;;17.10;99.90;;;;;;4852877;29;38578;-84
2022/07/22 01:38:52;;;;;;;5.63;2.03;;;17.10;99.90;;;;;;4857303;29;36937;-84
2022/07/22 01:41:18;;;;;;;5.18;2.03;;;17.10;99.90;;;;;;4853704;29;37463;-84
2022/07/22 01:43:44;;;;;;;4.22;1.30;;;17.10;99.90;;;;;;4855119;29;37688;-85
2022/07/22 01:46:10;;;;;;;5.72;2.10;;;17.10;99.90;;;;;;4856271;29;37462;-84
2022/07/22 01:48:36;;;;;;;3.42;1.40;;;17.10;99.90;;;;;;4857224;29;39061;-84
2022/07/22 01:51:03;;;;;;;8.15;2.15;;;17.10;99.90;;;;;;4855189;29;36349;-84
2022/07/22 01:53:29;;;;;;;5.25;1.63;;;17.00;99.90;;;;;;4858000;29;37768;-84
2022/07/22 01:55:55;;;;;;;6.95;1.60;;;17.00;99.90;;;;;;4873645;29;38294;-84
2022/07/22 01:58:21;;;;;;;7.65;2.00;;;17.00;99.90;;;;;;4853543;29;37852;-85
2022/07/22 02:00:48;;;;;;;4.60;1.58;;;17.10;99.90;;;;;;4873610;29;36955;-85
2022/07/22 02:03:14;;;;;;;4.95;1.52;;;17.10;99.90;;;;;;4853277;29;37917;-84
2022/07/22 02:05:40;;;;;;;6.78;1.63;;;17.00;99.90;;;;;;4856821;29;37139;-84
2022/07/22 02:08:10;;;;;;;7.00;1.90;;;17.10;99.90;;;;;;4857095;29;36890;-84
2022/07/22 02:10:37;;;;;;;7.20;1.55;;;17.00;99.90;;;;;;4873085;29;38014;-83
2022/07/22 02:13:03;;;;;;;4.95;1.40;;;17.00;99.90;;;;;;4872127;29;39584;-86
2022/07/22 02:15:30;;;;;;;9.70;2.17;;;17.00;99.90;;;;;;4856830;29;38804;-84
2022/07/22 02:17:56;;;;;;;5.25;1.77;;;16.90;99.90;;;;;;4870424;29;38756;-84
2022/07/22 02:20:22;;;;;;;4.18;1.50;;;16.90;99.90;;;;;;4872834;29;38291;-85
2022/07/22 02:22:48;;;;;;;3.72;1.50;;;16.90;99.90;;;;;;4856745;29;37951;-84
2022/07/22 02:25:15;;;;;;;5.75;1.60;;;16.80;99.90;;;;;;4855270;29;38298;-84
2022/07/22 02:27:41;;;;;;;7.07;1.70;;;16.90;99.90;;;;;;4855071;29;38609;-84
2022/07/22 02:30:09;;;;;;;3.67;1.55;;;16.80;99.90;;;;;;4864722;29;37182;-84
2022/07/22 02:32:35;;;;;;;4.32;1.50;;;16.80;99.90;;;;;;4852524;29;39203;-85
2022/07/22 02:35:02;;;;;;;3.25;1.55;;;16.80;99.90;;;;;;4854327;29;39001;-85
2022/07/22 02:37:28;;;;;;;5.43;1.45;;;16.70;99.90;;;;;;4870212;29;47182;-84
2022/07/22 02:39:54;;;;;;;9.05;2.20;;;16.70;99.90;;;;;;4855648;29;36237;-84
2022/07/22 02:42:20;;;;;;;5.85;1.52;;;16.70;99.90;;;;;;4854721;29;37912;-84
2022/07/22 02:44:46;;;;;;;5.55;1.27;;;16.60;99.90;;;;;;4868731;29;38154;-84
2022/07/22 02:47:12;;;;;;;6.60;1.63;;;16.60;99.90;;;;;;4854474;29;36913;-85
2022/07/22 02:49:38;;;;;;;3.15;1.42;;;16.50;99.90;;;;;;4855995;29;36018;-84
2022/07/22 02:52:04;;;;;;;4.18;1.42;;;16.60;99.90;;;;;;4872582;29;38728;-84
2022/07/22 02:54:30;;;;;;;4.75;1.33;;;16.50;99.90;;;;;;4871422;29;38606;-84
2022/07/22 02:56:57;;;;;;;4.18;1.42;;;16.50;99.90;;;;;;4855153;29;37339;-84
2022/07/22 02:59:23;;;;;;;5.65;1.40;;;16.50;99.90;;;;;;4855750;29;37463;-84
2022/07/22 03:01:49;;;;;;;5.00;1.63;;;16.40;99.90;;;;;;4854724;29;37593;-84
2022/07/22 03:04:15;;;;;;;4.13;1.20;;;16.40;99.90;;;;;;4869384;29;39457;-84
2022/07/22 03:06:41;;;;;;;4.70;1.40;;;16.40;99.90;;;;;;4855420;29;37054;-84
2022/07/22 03:09:07;;;;;;;2.75;1.45;;;16.30;99.90;;;;;;4872538;29;37761;-85
2022/07/22 03:11:33;;;;;;;4.70;1.50;;;16.20;99.90;;;;;;4858805;29;38002;-84
2022/07/22 03:13:59;;;;;;;3.83;1.30;;;16.20;99.90;;;;;;4859092;29;37565;-85
2022/07/22 03:16:25;;;;;;;3.67;1.48;;;16.10;99.90;;;;;;4852292;29;36962;-85
2022/07/22 03:18:51;;;;;;;3.50;1.70;;;16.10;99.90;;;;;;4859166;29;36494;-85
2022/07/22 03:21:17;;;;;;;4.85;1.45;;;16.00;99.90;;;;;;4858091;29;39086;-85
2022/07/22 03:23:43;;;;;;;5.55;1.42;;;16.00;99.90;;;;;;4856951;29;37452;-85
2022/07/22 03:26:09;;;;;;;4.72;2.00;;;16.00;99.90;;;;;;4858282;29;38480;-85
2022/07/22 03:28:35;;;;;;;5.30;1.50;;;15.90;99.90;;;;;;4856438;29;36149;-84
2022/07/22 03:31:02;;;;;;;3.25;1.27;;;15.90;99.90;;;;;;4874929;29;38901;-84
2022/07/22 03:33:28;;;;;;;2.42;1.40;;;15.90;99.90;;;;;;4858594;29;46906;-84
2022/07/22 03:35:54;;;;;;;3.47;1.50;;;15.90;99.90;;;;;;4874015;29;39119;-85
2022/07/22 03:38:20;;;;;;;2.55;1.35;;;15.90;99.90;;;;;;4854576;29;37207;-85
2022/07/22 03:40:46;;;;;;;4.60;1.20;;;15.90;99.90;;;;;;4858439;29;37721;-85
2022/07/22 03:43:12;;;;;;;3.47;1.52;;;15.90;99.90;;;;;;4857759;29;38009;-85
2022/07/22 03:45:38;;;;;;;4.82;1.48;;;15.90;99.90;;;;;;4858296;29;37036;-85
2022/07/22 03:48:05;;;;;;;3.65;1.67;;;16.00;99.90;;;;;;4857748;29;20484;-84
2022/07/22 03:50:32;;;;;;;3.20;1.55;;;16.00;99.90;;;;;;4875220;29;39169;-85
2022/07/22 03:52:58;;;;;;;3.67;1.30;;;16.00;99.90;;;;;;4859086;29;37222;-85
2022/07/22 03:55:24;;;;;;;3.22;1.42;;;16.00;99.90;;;;;;4873391;29;37616;-84
2022/07/22 03:57:50;;;;;;;3.20;1.50;;;16.00;99.90;;;;;;4871578;29;36882;-84
2022/07/22 04:00:16;;;;;;;1.77;1.33;;;16.00;99.90;;;;;;4857650;29;39795;-84
2022/07/22 04:02:42;;;;;;;2.80;1.35;;;16.10;99.90;;;;;;4859265;29;38449;-83
2022/07/22 04:05:08;;;;;;;4.15;1.50;;;16.10;99.90;;;;;;4874108;29;38164;-85
2022/07/22 04:07:34;;;;;;;5.60;1.60;;;16.10;99.90;;;;;;4859672;29;37648;-84
2022/07/22 04:10:04;;;;;;;2.08;1.38;;;16.20;99.90;;;;;;4875503;29;38673;-84
2022/07/22 04:12:35;;;;;;;3.75;1.77;;;16.20;99.90;;;;;;4856986;29;47248;-84
2022/07/22 04:15:02;;;;;;;5.47;1.50;;;16.30;99.90;;;;;;4856796;29;38826;-85
2022/07/22 04:17:28;;;;;;;3.60;2.00;;;16.30;99.90;;;;;;4875101;29;47138;-84
2022/07/22 04:19:55;;;;;;;6.63;1.50;;;16.30;99.90;;;;;;4856754;29;40169;-84
2022/07/22 04:22:21;;;;;;;4.10;1.50;;;16.30;99.90;;;;;;4854606;29;37018;-84
2022/07/22 04:24:47;;;;;;;2.97;1.23;;;16.30;99.90;;;;;;4854659;29;37583;-84
2022/07/22 04:27:13;;;;;;;4.28;1.30;;;16.40;99.90;;;;;;4855781;29;37429;-84
2022/07/22 04:29:39;;;;;;;4.03;1.70;;;16.40;99.90;;;;;;4855328;29;38447;-85
2022/07/22 04:32:05;;;;;;;3.60;1.52;;;16.40;99.90;;;;;;4873630;29;39406;-84
2022/07/22 04:34:32;;;;;;;2.90;1.58;;;16.40;99.90;;;;;;4857154;29;36802;-84
2022/07/22 04:36:58;;;;;;;3.95;1.40;;;16.40;99.90;;;;;;4847660;29;36157;-85
2022/07/22 04:39:24;;;;;;;2.25;1.27;;;16.50;99.90;;;;;;4854626;29;39082;-84
2022/07/22 04:41:50;;;;;;;4.10;1.38;;;16.50;99.90;;;;;;4851625;29;37281;-84
2022/07/22 04:44:16;;;;;;;4.82;1.20;;;16.50;99.90;;;;;;4858103;29;37288;-85
2022/07/22 04:46:42;;;;;;;5.18;1.20;;;16.50;99.90;;;;;;4855119;29;36162;-85
2022/07/22 04:49:08;;;;;;;2.47;1.17;;;16.60;99.90;;;;;;4871967;29;38941;-85
2022/07/22 04:51:34;;;;;;;3.45;0.90;;;16.60;99.90;;;;;;4857197;29;37291;-85
2022/07/22 04:54:00;;;;;;;4.22;1.05;;;16.60;99.90;;;;;;4857998;29;37118;-85
2022/07/22 04:56:26;;;;;;;5.18;1.10;;;16.60;99.90;;;;;;4873226;29;38202;-85
2022/07/22 04:58:52;;;;;;;3.10;1.13;;;16.70;99.90;;;;;;4871094;29;38776;-85
2022/07/22 05:01:19;;;;;;;3.30;1.20;;;16.80;99.90;;;;;;4856482;29;37164;-85
2022/07/22 05:03:45;;;;;;;4.28;1.23;;;16.80;99.90;;;;;;4857656;29;38302;-84
2022/07/22 05:06:11;;;;;;;3.22;1.20;;;16.90;99.90;;;;;;4856718;29;37190;-84
2022/07/22 05:08:37;;;;;;;3.00;1.30;;;16.90;99.90;;;;;;4871592;29;38782;-85
2022/07/22 05:11:03;;;;;;;10.10;1.40;;;17.00;99.90;;;;;;4872358;29;38331;-84
2022/07/22 05:13:29;;;;;;;6.53;1.38;;;17.00;99.90;;;;;;4874719;29;37735;-84
2022/07/22 05:15:55;;;;;;;3.55;1.15;;;17.10;99.90;;;;;;4856840;29;37670;-84
2022/07/22 05:18:22;;;;;;;3.33;1.05;;;17.20;99.90;;;;;;4873722;29;38663;-84
2022/07/22 05:20:49;;;;;;;3.28;0.95;;;17.20;99.90;;;;;;4856594;29;39434;-84
2022/07/22 05:23:15;;;;;;;5.80;1.10;;;17.20;99.90;;;;;;4872875;29;38983;-83
2022/07/22 05:25:41;;;;;;;2.92;1.02;;;17.20;99.90;;;;;;4856963;29;36149;-84
2022/07/22 05:28:07;;;;;;;5.03;1.30;;;17.30;99.90;;;;;;4869361;29;39989;-83
2022/07/22 05:30:33;;;;;;;4.97;1.20;;;17.30;99.90;;;;;;4853991;29;38685;-83
2022/07/22 05:33:00;;;;;;;5.15;1.08;;;17.30;99.90;;;;;;4855212;29;37983;-84
2022/07/22 05:35:26;;;;;;;3.35;1.15;;;17.40;99.90;;;;;;4854862;29;36483;-84
2022/07/22 05:37:52;;;;;;;4.47;1.30;;;17.50;99.90;;;;;;4855818;29;38775;-84
2022/07/22 05:40:18;;;;;;;2.72;1.08;;;17.50;99.90;;;;;;4856893;29;38476;-84
2022/07/22 05:42:44;;;;;;;4.95;1.13;;;17.60;99.90;;;;;;4853840;29;37484;-83
2022/07/22 05:45:10;;;;;;;2.42;0.80;;;17.80;99.90;;;;;;4846152;29;36660;-83
2022/07/22 05:47:36;;;;;;;3.95;1.33;;;17.80;99.90;;;;;;4850941;29;38701;-82
2022/07/22 05:50:03;;;;;;;3.28;1.02;;;17.90;99.90;;;;;;4856394;29;37323;-83
2022/07/22 05:52:29;;;;;;;7.80;1.35;;;17.90;99.90;;;;;;4871346;29;37892;-83
2022/07/22 05:54:55;;;;;;;3.17;1.23;;;18.10;99.90;;;;;;4854838;29;36354;-83
2022/07/22 05:57:21;;;;;;;5.63;1.48;;;18.30;99.90;;;;;;4871951;29;38593;-83
2022/07/22 05:59:47;;;;;;;3.00;1.00;;;18.20;99.90;;;;;;4856797;29;37334;-83
2022/07/22 06:02:13;;;;;;;2.95;1.10;;;18.20;99.90;;;;;;4855739;29;36956;-83
2022/07/22 06:04:39;;;;;;;4.50;1.10;;;18.10;99.90;;;;;;4855416;29;36004;-83
2022/07/22 06:07:06;;;;;;;2.45;0.90;;;18.10;99.90;;;;;;4855785;29;38141;-81
2022/07/22 06:09:32;;;;;;;4.95;1.08;;;18.10;99.90;;;;;;4856733;29;37449;-84
2022/07/22 06:11:58;;;;;;;3.25;1.05;;;18.10;99.90;;;;;;4854329;29;39117;-82
2022/07/22 06:14:24;;;;;;;2.80;1.00;;;18.20;99.90;;;;;;4854855;29;36048;-82
2022/07/22 06:16:50;;;;;;;4.32;1.20;;;18.30;99.90;;;;;;4854949;29;37815;-82
2022/07/22 06:19:16;;;;;;;4.28;0.93;;;18.30;99.90;;;;;;4855816;29;37335;-82
2022/07/22 06:21:42;;;;;;;1.50;1.00;;;18.40;99.90;;;;;;4856596;29;38071;-82
2022/07/22 06:24:08;;;;;;;3.33;0.73;;;18.40;99.90;;;;;;4873053;29;36786;-83
2022/07/22 06:26:34;;;;;;;2.17;0.75;;;18.40;99.90;;;;;;4855787;29;37895;-81
2022/07/22 06:29:01;;;;;;;4.72;0.70;;;18.40;99.90;;;;;;4855536;29;40782;-82
2022/07/22 06:31:27;;;;;;;2.53;0.60;;;18.30;99.90;;;;;;4859101;29;40572;-82
2022/07/22 06:33:53;;;;;;;2.53;0.60;;;18.40;99.90;;;;;;4871937;29;38044;-83
2022/07/22 06:36:19;;;;;;;4.50;0.80;;;18.40;99.90;;;;;;4854425;29;38932;-83
2022/07/22 06:38:46;;;;;;;1.70;0.75;;;18.50;99.90;;;;;;4851549;29;38385;-83
2022/07/22 06:41:13;;;;;;;3.30;0.70;;;18.70;99.90;;;;;;4853772;29;37169;-83
2022/07/22 06:43:40;;;;;;;6.43;1.10;;;18.90;99.90;;;;;;4856531;29;36384;-83
2022/07/22 06:46:06;;;;;;;2.40;0.80;;;18.80;99.90;;;;;;4873640;29;38755;-81
2022/07/22 06:48:32;;;;;;;2.70;0.75;;;18.90;99.90;;;;;;4874364;29;38373;-81
2022/07/22 06:50:58;;;;;;;2.22;0.98;;;19.00;99.90;;;;;;4872844;29;38631;-81
2022/07/22 06:53:24;;;;;;;3.50;0.90;;;19.20;99.90;;;;;;4856649;29;37153;-80
2022/07/22 06:55:50;;;;;;;4.53;1.23;;;19.30;99.90;;;;;;4858047;29;38339;-81
2022/07/22 06:58:16;;;;;;;2.35;0.80;;;19.40;99.90;;;;;;4857489;29;37131;-81
2022/07/22 07:00:42;;;;;;;2.63;0.90;;;19.50;99.90;;;;;;4856829;29;37132;-80
2022/07/22 07:03:08;;;;;;;1.92;0.90;;;19.40;99.90;;;;;;4853588;29;37158;-80
2022/07/22 07:05:34;;;;;;;2.33;0.75;;;19.60;99.90;;;;;;4857886;29;37885;-81
2022/07/22 07:08:00;;;;;;;2.08;0.60;;;19.80;99.90;;;;;;4857915;29;40012;-80
2022/07/22 07:10:26;;;;;;;4.32;0.65;;;20.00;99.90;;;;;;4829510;29;46642;-80
2022/07/22 07:12:59;;;;;;;4.80;0.80;;;20.00;99.90;;;;;;4856156;29;36114;-80
2022/07/22 07:15:25;;;;;;;;;;;20.00;99.90;;;;;;4872540;29;39809;-80
2022/07/22 07:17:56;;;;;;;3.42;0.77;;;20.00;99.90;;;;;;4874816;29;39199;-81
2022/07/22 07:20:23;;;;;;;2.63;0.65;;;19.90;99.90;;;;;;4875389;29;38135;-80
2022/07/22 07:22:49;;;;;;;1.00;0.52;;;19.80;99.90;;;;;;4853728;29;36158;-81
2022/07/22 07:25:16;;;;;;;2.20;0.70;;;19.80;99.90;;;;;;4855087;29;37506;-80
2022/07/22 07:27:42;;;;;;;2.25;0.60;;;19.70;99.90;;;;;;4856055;29;37569;-80
2022/07/22 07:30:09;;;;;;;2.13;1.20;;;19.70;99.90;;;;;;4815906;29;1193152;-82
2022/07/22 07:32:39;;;;;;;3.20;0.70;;;19.60;99.90;;;;;;4856954;29;37140;-81
2022/07/22 07:35:06;;;;;;;3.08;0.88;;;19.50;99.90;;;;;;4857177;29;37859;-81
2022/07/22 07:37:32;;;;;;;1.88;0.77;;;19.40;99.90;;;;;;4858616;29;39563;-80
2022/07/22 07:39:59;;;;;;;5.85;1.30;;;19.50;99.90;;;;;;4855488;29;38889;-81
2022/07/22 07:42:26;;;;;;;3.25;0.68;;;19.50;99.90;;;;;;4871765;29;36800;-80
2022/07/22 07:44:52;;;;;;;2.05;0.90;;;19.50;99.90;;;;;;4858426;29;37606;-81
2022/07/22 07:47:20;;;;;;;4.40;0.82;;;19.60;99.90;;;;;;4874461;29;38580;-81
2022/07/22 07:49:47;;;;;;;2.85;0.70;;;19.60;99.90;;;;;;4853592;29;36989;-80
2022/07/22 07:52:15;;;;;;;2.20;0.60;;;19.60;99.90;;;;;;4874150;29;37484;-80
2022/07/22 07:54:41;;;;;;;5.53;0.88;;;19.60;99.90;;;;;;4874769;29;39367;-81
2022/07/22 07:57:10;;;;;;;1.83;0.70;;;19.50;99.90;;;;;;4856245;29;39146;-80
2022/07/22 07:59:37;;;;;;;1.33;0.60;;;19.60;99.90;;;;;;4871514;29;37951;-80
2022/07/22 08:02:04;;;;;;;2.13;0.57;;;19.70;99.90;;;;;;4857883;29;37493;-80
2022/07/22 08:04:34;;;;;;;2.33;0.57;;;19.80;99.90;;;;;;4873130;29;37614;-83
2022/07/22 08:07:00;;;;;;;3.88;1.25;;;20.00;99.90;;;;;;4875763;29;37815;-81
2022/07/22 08:09:26;;;;;;;4.00;0.80;;;20.20;99.90;;;;;;4862617;29;39334;-83
2022/07/22 08:11:52;;;;;;;3.25;0.88;;;20.10;99.90;;;;;;4857745;29;36108;-83
2022/07/22 08:14:19;;;;;;;3.40;0.80;;;20.30;99.90;;;;;;4863015;29;39902;-83
2022/07/22 08:16:45;;;;;;;3.03;0.75;;;20.70;99.90;;;;;;4857656;29;37096;-83
2022/07/22 08:19:11;;;;;;;5.00;0.88;;;21.00;99.90;;;;;;4846746;29;37136;-83
2022/07/22 08:21:38;;;;;;;5.05;0.88;;;21.20;99.90;;;;;;4853862;29;37144;-83
2022/07/22 08:24:04;;;;;;;3.55;0.82;;;21.30;99.90;;;;;;4875567;29;38674;-83
2022/07/22 08:26:30;;;;;;;2.00;0.60;;;21.30;99.90;;;;;;4876107;29;39819;-83
2022/07/22 08:28:56;;;;;;;2.95;0.82;;;21.40;99.90;;;;;;4857767;29;38073;-82
2022/07/22 08:31:22;;;;;;;2.65;0.82;;;21.50;99.90;;;;;;4874257;29;37001;-82
2022/07/22 08:33:48;;;;;;;2.08;0.90;;;21.70;99.90;;;;;;4858310;29;37927;-82
2022/07/22 08:36:14;;;;;;;3.17;0.70;;;21.80;99.90;;;;;;4857104;29;37226;-83
2022/07/22 08:38:40;;;;;;;1.60;0.90;;;21.60;99.90;;;;;;4855216;29;37857;-83
2022/07/22 08:41:06;;;;;;;3.83;0.60;;;21.30;99.90;;;;;;4873140;29;36962;-83
2022/07/22 08:43:39;;;;;;;2.20;0.60;;;21.20;99.90;;;;;;4872379;29;38976;-83
2022/07/22 08:46:05;;;;;;;1.13;0.47;;;21.00;99.90;;;;;;4854473;29;39903;-82
2022/07/22 08:48:31;;;;;;;1.58;0.68;;;20.90;99.90;;;;;;4873306;29;37915;-83
2022/07/22 08:50:57;;;;;;;0.70;0.60;;;20.80;99.90;;;;;;4856413;29;37612;-82
2022/07/22 08:53:24;;;;;;;2.00;0.60;;;20.80;99.90;;;;;;4855432;29;38889;-83
2022/07/22 08:55:50;;;;;;;1.15;0.50;;;21.00;99.90;;;;;;4858438;29;37732;-83
2022/07/22 08:58:17;;;;;;;1.85;0.57;;;21.10;99.90;;;;;;4853536;29;38366;-84
2022/07/22 09:00:43;;;;;;;2.17;0.57;;;21.30;99.90;;;;;;4855826;29;36269;-83
2022/07/22 09:03:27;;;;;;;2.85;0.50;;;21.80;99.90;;;;;;4856573;29;37939;-83
2022/07/22 09:05:53;;;;;;;3.40;0.80;;;22.20;99.90;;;;;;4855570;29;37785;-83
2022/07/22 09:08:20;;;;;;;1.70;0.65;;;22.40;99.90;;;;;;4868749;29;38212;-82
2022/07/22 09:10:47;;;;;;;1.75;0.60;;;22.60;99.90;;;;;;4856890;29;37716;-84
2022/07/22 09:13:16;;;;;;;5.82;0.90;;;22.60;99.90;;;;;;4856442;29;37708;-83
2022/07/22 09:15:54;;;;;;;1.77;0.80;;;22.40;99.90;;;;;;4874280;29;39228;-83
2022/07/22 09:18:21;;;;;;;1.55;0.55;;;22.10;99.90;;;;;;4850426;29;38586;-83
2022/07/22 09:20:47;;;;;;;3.22;0.80;;;21.90;99.90;;;;;;4856802;29;36030;-82
2022/07/22 09:23:21;;;;;;;4.15;1.10;;;21.70;99.90;;;;;;4856922;29;38272;-83
2022/07/22 09:25:48;;;;;;;5.78;0.80;;;21.50;99.90;;;;;;4856505;29;38065;-84
2022/07/22 09:28:20;;;;;;;5.25;1.10;;;21.50;99.90;;;;;;4853042;29;37865;-83
2022/07/22 09:30:54;;;;;;;4.25;1.05;;;21.40;99.90;;;;;;4873714;29;37679;-83
2022/07/22 09:33:21;;;;;;;1.40;0.90;;;21.90;99.90;;;;;;4854469;29;37912;-83
2022/07/22 09:35:49;;;;;;;4.03;0.98;;;22.40;99.90;;;;;;4854807;29;39408;-83
2022/07/22 09:38:16;;;;;;;9.02;1.35;;;22.80;99.90;;;;;;4855839;29;36974;-84
2022/07/22 09:40:47;;;;;;;2.60;0.80;;;23.10;99.90;;;;;;4856994;29;36876;-84
2022/07/22 09:43:18;;;;;;;3.83;0.98;;;23.10;99.90;;;;;;4870171;29;38568;-83
2022/07/22 09:45:47;;;;;;;5.15;0.95;;;23.10;99.90;;;;;;4853119;29;37313;-83
2022/07/22 09:48:15;;;;;;;3.92;1.02;;;23.10;99.90;;;;;;4855968;29;37815;-83
2022/07/22 09:50:41;;;;;;;3.15;0.98;;;22.90;99.90;;;;;;4855803;29;36202;-83
2022/07/22 09:53:07;;;;;;;2.83;0.93;;;22.70;99.90;;;;;;4868699;29;39889;-83
2022/07/22 09:55:37;;;;;;;5.78;1.30;;;22.20;99.90;;;;;;4854540;29;39001;-83
2022/07/22 09:58:04;;;;;;;4.35;1.02;;;22.00;99.90;;;;;;4863631;29;37985;-83
2022/07/22 10:00:30;;;;;;;3.53;0.90;;;22.20;99.90;;;;;;4862300;29;37219;-83
2022/07/22 10:02:59;;;;;;;4.07;0.93;;;22.60;99.90;;;;;;4855090;29;38268;-83
2022/07/22 10:05:30;;;;;;;3.47;1.00;;;22.60;99.90;;;;;;4856266;29;37078;-83
2022/07/22 10:07:57;;;;;;;2.05;1.15;;;22.30;99.90;;;;;;4871005;29;38310;-83
2022/07/22 10:10:26;;;;;;;2.40;1.00;;;22.20;99.90;;;;;;4869842;29;38238;-83
2022/07/22 10:12:55;;;;;;;2.15;0.80;;;22.00;99.90;;;;;;4871026;29;38703;-83
2022/07/22 10:15:23;;;;;;;3.15;1.05;;;22.00;99.90;;;;;;4856329;29;38457;-83
2022/07/22 10:17:55;;;;;;;6.18;1.00;;;21.80;99.90;;;;;;4854290;29;37188;-83
2022/07/22 10:20:24;;;;;;;5.28;1.00;;;21.80;99.90;;;;;;4855683;29;38433;-83
2022/07/22 10:22:59;;;;;;;5.07;1.17;;;21.90;99.90;;;;;;4854572;29;37854;-83
2022/07/22 10:25:46;;;;;;;4.13;1.23;;;21.90;99.90;;;;;;4851843;29;39386;-83
2022/07/22 10:28:25;;;;;;;5.55;1.08;;;22.00;99.90;;;;;;4849252;29;39045;-84
2022/07/22 10:30:51;;;;;;;5.60;1.30;;;22.00;99.90;;;;;;4850388;29;36215;-83
2022/07/22 10:33:20;;;;;;;6.18;1.58;;;21.90;99.90;;;;;;4855223;29;38430;-82
2022/07/22 10:35:58;;;;;;;2.10;0.85;;;22.10;99.90;;;;;;4856585;29;37726;-83
2022/07/22 10:38:27;;;;;;;3.88;0.95;;;22.20;99.90;;;;;;4848453;29;38175;-83
2022/07/22 10:40:53;;;;;;;3.42;1.30;;;22.30;99.90;;;;;;4856089;29;37389;-83
2022/07/22 10:43:21;;;;;;;2.50;1.20;;;22.40;99.90;;;;;;4854267;29;37938;-83
2022/07/22 10:46:06;;;;;;;5.75;1.30;;;22.60;99.90;;;;;;4858317;29;37757;-82
2022/07/22 10:48:32;;;;;;;3.35;0.90;;;23.40;99.90;;;;;;4856210;29;46984;-84
2022/07/22 10:51:10;;;;;;;4.03;1.15;;;24.30;99.90;;;;;;4855459;29;35903;-83
2022/07/22 10:54:01;;;;;;;2.95;1.35;;;24.50;99.90;;;;;;4855390;29;47174;-83
2022/07/22 10:56:35;;;;;;;3.83;1.10;;;24.50;99.90;;;;;;4847787;29;47340;-83
2022/07/22 10:59:12;;;;;;;3.00;1.13;;;24.30;99.90;;;;;;4852011;29;37555;-83
2022/07/22 11:01:48;;;;;;;3.72;1.23;;;23.90;99.90;;;;;;4867684;29;48656;-83
2022/07/22 11:04:22;;;;;;;3.78;0.93;;;23.40;99.90;;;;;;4873526;29;39496;-83
2022/07/22 11:06:51;;;;;;;4.43;0.93;;;23.50;99.90;;;;;;4872653;29;38561;-83
2022/07/22 11:09:19;;;;;;;4.38;1.17;;;23.70;99.90;;;;;;4855550;29;36842;-82
2022/07/22 11:11:50;;;;;;;2.92;1.13;;;24.10;99.90;;;;;;4855877;29;37889;-84
2022/07/22 11:14:34;;;;;;;1.27;0.80;;;24.30;99.90;;;;;;4870935;29;39656;-83
2022/07/22 11:17:09;;;;;;;2.65;0.90;;;24.40;99.90;;;;;;4872299;29;37961;-82
2022/07/22 11:19:39;;;;;;;3.03;1.02;;;24.60;99.90;;;;;;4869752;29;48927;-81
2022/07/22 11:22:11;;;;;;;3.75;1.15;;;24.90;99.90;;;;;;4872052;29;37231;-81
2022/07/22 11:24:38;;;;;;;2.53;1.27;;;25.00;99.90;;;;;;4872088;29;40414;-81
2022/07/22 11:27:13;;;;;;;3.05;1.08;;;25.30;99.90;;;;;;4854689;29;37417;-81
2022/07/22 11:29:41;;;;;;;3.05;1.00;;;25.20;99.90;;;;;;4872070;29;37419;-81
2022/07/22 11:32:09;;;;;;;4.72;1.17;;;24.70;99.90;;;;;;4857332;29;36321;-81
2022/07/22 11:34:42;;;;;;;8.20;1.40;;;24.40;99.90;;;;;;4857651;29;39008;-81
2022/07/22 11:37:08;;;;;;;3.42;1.00;;;24.20;99.90;;;;;;4856302;29;37304;-82
2022/07/22 11:39:35;;;;;;;3.10;1.27;;;23.80;99.90;;;;;;4852565;29;38117;-83
2022/07/22 11:42:01;;;;;;;3.17;1.00;;;23.90;99.90;;;;;;4855597;29;36827;-83
2022/07/22 11:44:30;;;;;;;3.95;1.20;;;23.80;99.90;;;;;;4858678;29;37456;-84
2022/07/22 11:46:58;;;;;;;2.53;1.10;;;23.70;99.90;;;;;;4874405;29;39342;-84
2022/07/22 11:49:26;;;;;;;4.55;1.48;;;23.60;99.90;;;;;;4854978;29;36841;-83
2022/07/22 11:51:52;;;;;;;3.65;1.05;;;23.60;99.90;;;;;;4856731;29;37863;-84
2022/07/22 11:54:19;;;;;;;4.47;1.20;;;23.50;99.90;;;;;;4874423;29;39937;-85
2022/07/22 11:56:45;;;;;;;3.28;1.10;;;23.80;99.90;;;;;;4874356;29;38443;-84
2022/07/22 11:59:17;;;;;;;2.63;1.10;;;24.00;99.90;;;;;;4871547;29;37570;-85
2022/07/22 12:01:44;;;;;;;5.22;1.60;;;23.80;99.90;;;;;;4867365;29;37278;-85
2022/07/22 12:04:15;;;;;;;4.85;1.55;;;23.50;99.90;;;;;;4857514;29;39283;-85
2022/07/22 12:06:43;;;;;;;5.77;1.30;;;23.30;99.90;;;;;;4875166;29;38557;-84
2022/07/22 12:09:12;;;;;;;4.20;1.30;;;23.40;99.90;;;;;;4859959;29;37971;-84
2022/07/22 12:11:40;;;;;;;3.25;1.10;;;23.50;99.90;;;;;;4857901;29;37414;-84
2022/07/22 12:14:12;;;;;;;3.17;1.30;;;23.80;99.90;;;;;;4858605;29;38227;-84
2022/07/22 12:16:39;;;;;;;3.83;1.15;;;24.10;99.90;;;;;;4873760;29;37954;-84
2022/07/22 12:19:09;;;;;;;2.88;1.20;;;24.40;99.90;;;;;;4873594;29;37771;-82
2022/07/22 12:21:49;;;;;;;2.97;1.08;;;24.60;99.90;;;;;;4874823;29;37010;-82
2022/07/22 12:24:16;;;;;;;2.38;1.30;;;24.60;99.90;;;;;;4845355;29;38296;-83
2022/07/22 12:26:44;;;;;;;2.65;1.30;;;24.70;99.90;;;;;;4857674;29;37517;-83
2022/07/22 12:29:23;;;;;;;2.53;1.30;;;24.60;99.90;;;;;;4856425;29;37781;-82
2022/07/22 12:31:55;;;;;;;3.92;1.38;;;24.50;99.90;;;;;;4871641;29;37394;-83
2022/07/22 12:34:41;;;;;;;4.53;1.33;;;24.60;99.90;;;;;;4856003;29;38004;-81
2022/07/22 12:37:19;;;;;;;1.90;0.90;;;24.60;99.90;;;;;;4869402;29;39491;-81
2022/07/22 12:40:17;;;;;;;3.30;1.20;;;24.60;99.90;;;;;;4864502;29;38879;-82
2022/07/22 12:42:45;;;;;;;4.43;1.52;;;24.50;99.90;;;;;;4852155;29;47155;-83
2022/07/22 12:45:21;;;;;;;5.57;1.67;;;24.40;99.90;;;;;;4855885;29;37778;-82
2022/07/22 12:48:05;;;;;;;3.15;1.52;;;24.10;99.90;;;;;;4870827;29;37538;-83
2022/07/22 12:50:39;;;;;;;5.63;1.33;;;23.80;99.90;;;;;;4859061;29;47103;-82